Aeroporto :
LOGIN :

Iscrizione | Disclaimer

   EN    FR    IT 

 










Sommario :    VFR   VFR Marginale   IFR   IFR Intensivo   IFR Molto Intensivo
Visibilità : 
Base nubi : 
>= 8 km
>= 3000ft
5 / 8 km
1000 / 3000 ft
1500m / 5 km
500 / 1000 ft
800 / 1500m
200 / 500 ft
< 800m
< 200 ft
Simboli :   Temporali  Nebbia  Neve Forte  Precipitazioni Forti  Vento > 20 kt
SIGMETs :   Varie  Temporali  Ghiacco  Turbolenza  Onda orograficha  Ceneri Vulcaniche






- Altitudine del aeroporto : 40 ft
- Codice IATA : RMI


LIPR - Federico Fellini Int. Rimini

ULTIMO METAR :
  • 150250Z AUTO 14005KT 9999 -RA FEW043/// BKN070/// 13/10 Q1004

METARs OBSOLETI :
  • 150220Z AUTO 15005KT 120V180 9999 BKN072/// BKN100/// BKN190/// 13/10 Q1004
  • 150150Z AUTO 14006KT 100V180 9999 FEW075/// BKN095/// BKN190/// 13/10 Q1004
  • 150120Z AUTO VRB02KT 9999 FEW052/// BKN180/// 12/09 Q1004
  • 150050Z AUTO 15003KT 100V210 9999 SCT050/// BKN180/// 13/09 Q1004
  • 150020Z AUTO VRB02KT 9999 DZ BKN050/// 12/10 Q1004

TAF TAF LIPR
Valido dal 15 a 03 ore il 15 a 12 ore UTC


150200Z 1503/1512 15012KT 9999 SCT020 BKN050
TEMPO 1509/1512 4000 SHRA



MetMap, La meteo Aeronautica in un colpo d'occhio ! - Copyright ORBIFLY Dicembre 2007 - Disclaimer

ORBIFLY MET'MAP TEAM :

Programmazione e sviluppo : Alexandra Zaïnal
Concezione e sviluppo : Baudouin d'Aumeries
Co-Programmazione e sviluppo : Marc-Olivier Méhu
Supporto tecnico e logistico : Manuel Goepfert
Aiuto per la traduzione : Arnaldo La Scala

Contatto : metmap@orbifly.com




FONTI E CREDITI :

   NOAA